createdAt,value
2022-10-03T00:00:20.463Z,98098.78
2022-10-03T00:03:06.035Z,98101.38
2022-10-03T00:05:53.833Z,98097.88
2022-10-03T00:08:49.984Z,98109.56
2022-10-03T00:11:33.213Z,98098.44
2022-10-03T00:14:28.642Z,98101.41
2022-10-03T00:17:41.654Z,98094.03
2022-10-03T00:20:32.068Z,98099.28
2022-10-03T00:23:04.971Z,98100.06
2022-10-03T00:25:58.490Z,98111.47
2022-10-03T00:28:48.521Z,98119.41
2022-10-03T00:31:18.302Z,98114.66
2022-10-03T00:34:04.975Z,98111.78
2022-10-03T00:37:13.700Z,98112.22
2022-10-03T00:39:58.452Z,98110.59
2022-10-03T00:42:44.449Z,98115.50
2022-10-03T00:45:49.980Z,98116.16
2022-10-03T00:48:37.687Z,98122.19
2022-10-03T00:51:17.456Z,98137.25
2022-10-03T00:54:07.164Z,98138.63
2022-10-03T00:56:57.181Z,98127.09
2022-10-03T00:59:48.429Z,98134.19
2022-10-03T01:02:41.854Z,98125.87
2022-10-03T01:05:42.661Z,98134.34
2022-10-03T01:08:40.292Z,98132.97
2022-10-03T01:11:13.191Z,98122.19
2022-10-03T01:13:58.781Z,98122.75
2022-10-03T01:16:38.077Z,98118.56
2022-10-03T01:19:22.533Z,98119.31
2022-10-03T01:22:10.943Z,98131.38
2022-10-03T01:24:59.743Z,98119.88
2022-10-03T01:28:01.954Z,98118.47
2022-10-03T01:30:37.937Z,98116.22
2022-10-03T01:33:37.761Z,98117.69
2022-10-03T01:36:14.718Z,98120.38
2022-10-03T01:38:53.855Z,98122.56
2022-10-03T01:41:25.419Z,98116.41
2022-10-03T01:44:00.824Z,98128.97
2022-10-03T01:46:40.142Z,98132.75
2022-10-03T01:49:31.293Z,98130.19
2022-10-03T01:52:10.426Z,98134.81
2022-10-03T01:54:45.216Z,98129.16
2022-10-03T01:57:25.922Z,98137.22
2022-10-03T01:59:59.290Z,98138.63
2022-10-03T02:02:46.565Z,98138.31
2022-10-03T02:05:56.847Z,98138.47
2022-10-03T02:09:03.862Z,98137.09
2022-10-03T02:11:56.091Z,98129.00
2022-10-03T02:14:26.384Z,98141.91
2022-10-03T02:17:11.600Z,98144.69
2022-10-03T02:20:02.298Z,98142.06
2022-10-03T02:22:32.486Z,98143.88
2022-10-03T02:25:03.069Z,98151.16
2022-10-03T02:27:54.583Z,98153.81
2022-10-03T02:30:37.323Z,98152.59
2022-10-03T02:33:16.207Z,98141.66
2022-10-03T02:36:04.296Z,98148.41
2022-10-03T02:38:44.424Z,98151.63
2022-10-03T02:41:17.232Z,98147.75
2022-10-03T02:44:09.059Z,98142.91
2022-10-03T02:47:03.733Z,98147.66
2022-10-03T02:50:04.310Z,98154.63
2022-10-03T02:52:41.535Z,98157.91
2022-10-03T02:55:22.485Z,98158.72
2022-10-03T02:57:49.264Z,98146.72
2022-10-03T03:00:21.055Z,98153.72
2022-10-03T03:02:54.883Z,98149.50
2022-10-03T03:05:27.709Z,98146.59
2022-10-03T03:08:33.961Z,98146.91
2022-10-03T03:11:07.684Z,98155.91
2022-10-03T03:13:46.893Z,98162.31
2022-10-03T03:16:52.627Z,98166.50
2022-10-03T03:19:37.680Z,98162.06
2022-10-03T03:22:13.149Z,98165.03
2022-10-03T03:25:02.128Z,98164.84
2022-10-03T03:27:49.641Z,98170.59
2022-10-03T03:30:19.642Z,98186.16
2022-10-03T03:33:08.131Z,98191.00
2022-10-03T03:35:53.609Z,98192.66
2022-10-03T03:38:36.094Z,98197.16
2022-10-03T03:41:14.906Z,98197.38
2022-10-03T03:44:05.910Z,98202.66
2022-10-03T03:46:59.422Z,98205.47
2022-10-03T03:49:47.602Z,98197.25
2022-10-03T03:52:42.723Z,98200.56
2022-10-03T03:55:31.261Z,98198.03
2022-10-03T03:58:19.490Z,98204.09
2022-10-03T04:00:53.041Z,98215.13
2022-10-03T04:03:39.620Z,98210.59
2022-10-03T04:06:17.957Z,98228.16
2022-10-03T04:09:17.190Z,98224.09
2022-10-03T04:12:15.096Z,98231.09
2022-10-03T04:15:08.830Z,98240.66
2022-10-03T04:18:12.096Z,98255.69
2022-10-03T04:20:59.213Z,98261.22
2022-10-03T04:23:36.794Z,98259.53
2022-10-03T04:26:13.104Z,98264.00
2022-10-03T04:28:50.660Z,98263.84
2022-10-03T04:31:45.121Z,98258.34
2022-10-03T04:34:46.891Z,98261.63
2022-10-03T04:37:32.366Z,98264.28
2022-10-03T04:40:24.813Z,98265.78
2022-10-03T04:43:00.347Z,98265.56
2022-10-03T04:46:25.567Z,98259.66
2022-10-03T04:49:32.307Z,98268.81
2022-10-03T04:52:23.356Z,98268.50
2022-10-03T04:55:06.860Z,98262.19
2022-10-03T04:57:52.859Z,98258.50
2022-10-03T05:00:23.855Z,98271.78
2022-10-03T05:02:51.574Z,98268.63
2022-10-03T05:05:32.666Z,98260.75
2022-10-03T05:08:33.106Z,98274.84
2022-10-03T05:11:12.488Z,98278.84
2022-10-03T05:13:57.352Z,98279.88
2022-10-03T05:16:44.720Z,98280.81
2022-10-03T05:19:23.985Z,98275.84
2022-10-03T05:22:04.823Z,98283.34
2022-10-03T05:24:45.269Z,98276.41
2022-10-03T05:27:35.178Z,98279.81
2022-10-03T05:30:15.936Z,98281.38
2022-10-03T05:32:57.086Z,98282.97
2022-10-03T05:35:54.960Z,98277.63
2022-10-03T05:38:50.274Z,98289.78
2022-10-03T05:41:17.091Z,98285.56
2022-10-03T05:44:02.812Z,98279.88
2022-10-03T05:46:58.377Z,98296.00
2022-10-03T05:49:50.652Z,98295.22
2022-10-03T05:52:41.816Z,98302.22
2022-10-03T05:55:28.648Z,98303.94
2022-10-03T05:58:29.137Z,98298.38
2022-10-03T06:01:07.135Z,98316.75
2022-10-03T06:03:39.883Z,98314.13
2022-10-03T06:06:51.892Z,98314.06
2022-10-03T06:10:16.340Z,98312.12
2022-10-03T06:13:05.154Z,98322.44
2022-10-03T06:15:43.157Z,98313.41
2022-10-03T06:18:10.451Z,98318.72
2022-10-03T06:20:55.666Z,98310.91
2022-10-03T06:23:38.503Z,98327.38
2022-10-03T06:26:43.203Z,98321.88
2022-10-03T06:29:28.772Z,98315.66
2022-10-03T06:32:46.461Z,98328.44
2022-10-03T06:35:40.559Z,98330.00
2022-10-03T06:38:13.399Z,98330.63
2022-10-03T06:41:03.440Z,98338.75
2022-10-03T06:44:04.262Z,98339.22
2022-10-03T06:46:42.329Z,98345.00
2022-10-03T06:49:12.371Z,98324.31
2022-10-03T06:51:39.207Z,98327.91
2022-10-03T06:54:11.994Z,98331.91
2022-10-03T06:57:09.653Z,98327.47
2022-10-03T06:59:36.479Z,98333.25
2022-10-03T07:02:34.817Z,98316.63
2022-10-03T07:05:16.711Z,98332.66
2022-10-03T07:08:09.639Z,98332.47
2022-10-03T07:10:51.069Z,98325.47
2022-10-03T07:13:41.318Z,98337.28
2022-10-03T07:16:27.043Z,98330.28
2022-10-03T07:19:06.834Z,98339.13
2022-10-03T07:21:58.408Z,98338.84
2022-10-03T07:24:34.372Z,98345.34
2022-10-03T07:27:05.615Z,98344.00
2022-10-03T07:29:35.481Z,98353.31
2022-10-03T07:32:18.729Z,98350.06
2022-10-03T07:35:22.407Z,98354.84
2022-10-03T07:38:42.166Z,98361.91
2022-10-03T07:41:43.641Z,98366.88
2022-10-03T07:44:36.036Z,98359.38
2022-10-03T07:47:21.420Z,98357.81
2022-10-03T07:50:18.231Z,98361.00
2022-10-03T07:53:01.615Z,98368.31
2022-10-03T07:55:30.658Z,98359.91
2022-10-03T07:58:13.519Z,98367.03
2022-10-03T08:00:59.084Z,98373.03
2022-10-03T08:03:47.697Z,98353.59
2022-10-03T08:06:44.232Z,98362.59
2022-10-03T08:09:47.578Z,98353.34
2022-10-03T08:12:35.569Z,98360.97
2022-10-03T08:15:30.059Z,98346.19
2022-10-03T08:18:20.281Z,98357.91
2022-10-03T08:20:49.915Z,98353.69
2022-10-03T08:24:05.950Z,98356.94
2022-10-03T08:26:55.351Z,98369.59
2022-10-03T08:29:37.327Z,98361.97
2022-10-03T08:32:33.558Z,98367.94
2022-10-03T08:35:17.692Z,98377.84
2022-10-03T08:38:12.746Z,98376.63
2022-10-03T08:40:45.611Z,98388.75
2022-10-03T08:43:37.286Z,98385.78
2022-10-03T08:46:07.035Z,98380.69
2022-10-03T08:48:42.805Z,98375.69
2022-10-03T08:51:47.998Z,98396.25
2022-10-03T08:54:40.550Z,98406.94
2022-10-03T08:57:34.983Z,98395.50
2022-10-03T09:00:21.674Z,98418.56
2022-10-03T09:03:32.736Z,98408.56
2022-10-03T09:06:24.715Z,98380.91
2022-10-03T09:09:10.664Z,98406.84
2022-10-03T09:11:46.630Z,98407.06
2022-10-03T09:14:19.627Z,98422.16
2022-10-03T09:16:59.050Z,98417.84
2022-10-03T09:20:03.783Z,98415.41
2022-10-03T09:22:59.861Z,98432.25
2022-10-03T09:25:29.835Z,98440.25
2022-10-03T09:28:38.291Z,98426.13
2022-10-03T09:31:24.130Z,98428.28
2022-10-03T09:34:09.317Z,98432.72
2022-10-03T09:37:18.357Z,98435.56
2022-10-03T09:39:48.113Z,98423.09
2022-10-03T09:42:52.278Z,98427.53
2022-10-03T09:45:52.976Z,98417.84
2022-10-03T09:48:36.287Z,98403.31
2022-10-03T09:51:09.496Z,98406.28
2022-10-03T09:54:06.442Z,98416.59
2022-10-03T09:56:52.677Z,98406.63
2022-10-03T09:59:43.528Z,98417.16
2022-10-03T10:02:18.576Z,98407.78
2022-10-03T10:04:56.301Z,98417.31
2022-10-03T10:08:06.781Z,98422.03
2022-10-03T10:10:47.825Z,98411.41
2022-10-03T10:14:06.842Z,98416.84
2022-10-03T10:16:54.179Z,98413.56
2022-10-03T10:19:51.517Z,98414.28
2022-10-03T10:22:42.886Z,98420.81
2022-10-03T10:25:42.452Z,98419.59
2022-10-03T10:28:28.137Z,98421.00
2022-10-03T10:31:26.292Z,98409.34
2022-10-03T10:34:24.008Z,98424.97
2022-10-03T10:36:59.688Z,98410.25
2022-10-03T10:39:32.540Z,98404.81
2022-10-03T10:42:28.607Z,98402.44
2022-10-03T10:45:24.729Z,98404.16
2022-10-03T10:48:34.168Z,98406.34
2022-10-03T10:51:28.875Z,98390.25
2022-10-03T10:54:42.076Z,98396.50
2022-10-03T10:57:40.647Z,98383.88
2022-10-03T11:00:12.002Z,98389.66
2022-10-03T11:03:12.958Z,98381.50
2022-10-03T11:06:14.667Z,98386.25
2022-10-03T11:08:50.102Z,98384.19
2022-10-03T11:11:52.272Z,98380.63
2022-10-03T11:14:45.468Z,98363.75
2022-10-03T11:17:41.487Z,98366.00
2022-10-03T11:20:17.314Z,98359.12
2022-10-03T11:23:22.737Z,98367.09
2022-10-03T11:26:14.123Z,98383.78
2022-10-03T11:29:05.382Z,98383.25
2022-10-03T11:31:54.222Z,98395.38
2022-10-03T11:34:24.198Z,98378.22
2022-10-03T11:37:20.205Z,98381.66
2022-10-03T11:39:52.996Z,98365.22
2022-10-03T11:42:39.963Z,98367.72
2022-10-03T11:45:17.939Z,98372.59
2022-10-03T11:48:02.573Z,98372.78
2022-10-03T11:50:57.846Z,98388.25
2022-10-03T11:53:39.352Z,98381.38
2022-10-03T11:56:18.467Z,98381.75
2022-10-03T11:58:53.409Z,98377.37
2022-10-03T12:01:33.939Z,98375.56
2022-10-03T12:04:42.540Z,98394.94
2022-10-03T12:07:48.755Z,98396.41
2022-10-03T12:10:38.443Z,98389.00
2022-10-03T12:13:15.252Z,98388.06
2022-10-03T12:15:54.470Z,98385.22
2022-10-03T12:18:42.956Z,98384.75
2022-10-03T12:21:17.246Z,98381.50
2022-10-03T12:24:05.243Z,98366.06
2022-10-03T12:26:43.506Z,98381.50
2022-10-03T12:29:14.612Z,98376.44
2022-10-03T12:32:05.994Z,98376.84
2022-10-03T12:34:41.066Z,98380.31
2022-10-03T12:37:43.431Z,98354.03
2022-10-03T12:40:50.185Z,98373.56
2022-10-03T12:43:19.672Z,98367.19
2022-10-03T12:46:17.693Z,98380.03
2022-10-03T12:49:10.624Z,98384.94
2022-10-03T12:51:48.198Z,98388.72
2022-10-03T12:54:26.665Z,98381.56
2022-10-03T12:57:12.029Z,98398.84
2022-10-03T12:59:42.841Z,98393.81
2022-10-03T13:02:35.622Z,98392.87
2022-10-03T13:05:33.629Z,98386.72
2022-10-03T13:08:19.740Z,98387.59
2022-10-03T13:10:50.037Z,98383.53
2022-10-03T13:13:20.327Z,98385.66
2022-10-03T13:16:30.207Z,98400.59
2022-10-03T13:19:15.222Z,98396.19
2022-10-03T13:22:13.935Z,98376.41
2022-10-03T13:24:56.235Z,98382.03
2022-10-03T13:27:30.665Z,98365.03
2022-10-03T13:30:05.676Z,98370.16
2022-10-03T13:32:37.676Z,98372.69
2022-10-03T13:35:44.879Z,98371.63
2022-10-03T13:38:15.417Z,98361.63
2022-10-03T13:41:01.047Z,98370.78
2022-10-03T13:43:36.670Z,98366.94
2022-10-03T13:46:14.428Z,98363.56
2022-10-03T13:48:44.537Z,98361.31
2022-10-03T13:51:34.925Z,98355.50
2022-10-03T13:54:11.385Z,98358.00
2022-10-03T13:56:44.743Z,98367.91
2022-10-03T13:59:23.887Z,98364.78
2022-10-03T14:02:09.635Z,98360.22
2022-10-03T14:04:52.670Z,98362.16
2022-10-03T14:07:49.821Z,98366.41
2022-10-03T14:10:26.642Z,98354.06
2022-10-03T14:13:26.228Z,98362.66
2022-10-03T14:16:18.236Z,98364.31
2022-10-03T14:18:51.509Z,98348.91
2022-10-03T14:21:49.534Z,98376.56
2022-10-03T14:24:48.359Z,98381.66
2022-10-03T14:27:39.996Z,98376.66
2022-10-03T14:31:05.414Z,98375.19
2022-10-03T14:33:44.207Z,98353.69
2022-10-03T14:36:32.954Z,98371.22
2022-10-03T14:39:03.067Z,98374.97
2022-10-03T14:41:32.653Z,98366.78
2022-10-03T14:44:24.155Z,98374.91
2022-10-03T14:46:56.136Z,98367.41
2022-10-03T14:49:59.198Z,98363.41
2022-10-03T14:52:43.672Z,98368.97
2022-10-03T14:55:15.076Z,98370.53
2022-10-03T14:58:05.982Z,98376.59
2022-10-03T15:00:43.959Z,98377.63
2022-10-03T15:03:16.793Z,98380.19
2022-10-03T15:06:04.652Z,98374.12
2022-10-03T15:08:33.164Z,98375.91
2022-10-03T15:11:01.034Z,98377.03
2022-10-03T15:13:29.128Z,98389.41
2022-10-03T15:15:56.778Z,98374.03
2022-10-03T15:18:24.467Z,98380.66
2022-10-03T15:20:55.270Z,98376.59
2022-10-03T15:23:34.605Z,98390.78
2022-10-03T15:26:04.245Z,98385.37
2022-10-03T15:28:37.745Z,98388.66
2022-10-03T15:31:10.901Z,98393.03
2022-10-03T15:33:38.909Z,98386.22
2022-10-03T15:36:06.042Z,98390.16
2022-10-03T15:38:39.499Z,98385.78
2022-10-03T15:41:08.580Z,98377.00
2022-10-03T15:43:38.360Z,98374.59
2022-10-03T15:46:15.201Z,98376.84
2022-10-03T15:48:47.213Z,98384.19
2022-10-03T15:51:21.653Z,98365.56
2022-10-03T15:53:50.230Z,98385.94
2022-10-03T15:56:22.601Z,98395.50
2022-10-03T15:58:55.374Z,98388.59
2022-10-03T16:01:27.979Z,98392.16
2022-10-03T16:03:58.212Z,98387.28
2022-10-03T16:06:35.967Z,98392.97
2022-10-03T16:09:06.305Z,98399.22
2022-10-03T16:11:43.911Z,98408.16
2022-10-03T16:14:27.272Z,98410.59
2022-10-03T16:16:57.559Z,98404.91
2022-10-03T16:19:30.742Z,98404.16
2022-10-03T16:22:06.226Z,98407.59
2022-10-03T16:24:36.838Z,98412.59
2022-10-03T16:27:11.928Z,98412.88
2022-10-03T16:29:43.529Z,98407.81
2022-10-03T16:32:20.748Z,98424.63
2022-10-03T16:34:47.404Z,98416.91
2022-10-03T16:37:22.037Z,98417.94
2022-10-03T16:39:56.002Z,98425.88
2022-10-03T16:42:25.938Z,98428.00
2022-10-03T16:44:55.652Z,98422.38
2022-10-03T16:47:33.477Z,98411.34
2022-10-03T16:50:19.339Z,98422.87
2022-10-03T16:52:49.102Z,98424.63
2022-10-03T16:55:37.395Z,98426.09
2022-10-03T16:58:22.324Z,98427.22
2022-10-03T17:01:14.986Z,98428.19
2022-10-03T17:03:46.423Z,98436.13
2022-10-03T17:06:35.343Z,98444.53
2022-10-03T17:09:14.161Z,98437.81
2022-10-03T17:11:42.955Z,98445.56
2022-10-03T17:14:12.305Z,98444.91
2022-10-03T17:16:47.613Z,98438.75
2022-10-03T17:19:29.956Z,98442.66
2022-10-03T17:22:03.124Z,98454.97
2022-10-03T17:24:54.110Z,98460.09
2022-10-03T17:27:29.613Z,98455.66
2022-10-03T17:30:03.534Z,98469.03
2022-10-03T17:32:42.331Z,98452.88
2022-10-03T17:35:21.289Z,98465.69
2022-10-03T17:38:48.308Z,98460.34
2022-10-03T17:41:22.863Z,98462.06
2022-10-03T17:44:17.415Z,98461.91
2022-10-03T17:46:56.747Z,98476.94
2022-10-03T17:49:46.242Z,98479.41
2022-10-03T17:52:16.303Z,98475.91
2022-10-03T17:54:47.530Z,98476.53
2022-10-03T17:57:27.835Z,98474.59
2022-10-03T17:59:57.501Z,98475.91
2022-10-03T18:02:44.254Z,98471.66
2022-10-03T18:05:17.749Z,98471.44
2022-10-03T18:07:45.541Z,98478.53
2022-10-03T18:10:36.813Z,98480.41
2022-10-03T18:13:10.350Z,98493.00
2022-10-03T18:15:43.783Z,98497.38
2022-10-03T18:18:10.685Z,98491.34
2022-10-03T18:21:00.873Z,98497.88
2022-10-03T18:23:59.284Z,98490.47
2022-10-03T18:26:28.616Z,98498.47
2022-10-03T18:29:14.739Z,98494.84
2022-10-03T18:31:45.970Z,98497.59
2022-10-03T18:34:28.671Z,98505.63
2022-10-03T18:36:56.079Z,98497.72
2022-10-03T18:39:27.248Z,98491.47
2022-10-03T18:41:58.911Z,98499.84
2022-10-03T18:44:30.311Z,98507.41
2022-10-03T18:47:19.782Z,98498.81
2022-10-03T18:50:07.106Z,98495.50
2022-10-03T18:52:41.360Z,98506.66
2022-10-03T18:55:17.845Z,98509.50
2022-10-03T18:58:00.528Z,98518.66
2022-10-03T19:00:32.201Z,98512.47
2022-10-03T19:03:39.729Z,98514.66
2022-10-03T19:06:22.627Z,98517.97
2022-10-03T19:08:53.526Z,98520.00
2022-10-03T19:11:35.334Z,98507.53
2022-10-03T19:14:11.629Z,98509.59
2022-10-03T19:17:04.927Z,98516.53
2022-10-03T19:19:34.654Z,98518.25
2022-10-03T19:22:05.893Z,98526.56
2022-10-03T19:24:56.758Z,98517.91
2022-10-03T19:27:25.661Z,98520.97
2022-10-03T19:29:56.813Z,98513.28
2022-10-03T19:32:46.669Z,98513.19
2022-10-03T19:35:20.083Z,98514.94
2022-10-03T19:37:51.392Z,98514.00
2022-10-03T19:40:39.680Z,98508.75
2022-10-03T19:43:21.849Z,98513.53
2022-10-03T19:46:00.248Z,98517.91
2022-10-03T19:48:27.609Z,98508.13
2022-10-03T19:50:54.615Z,98507.56
2022-10-03T19:53:21.594Z,98510.56
2022-10-03T19:55:50.456Z,98501.00
2022-10-03T19:58:24.827Z,98512.81
2022-10-03T20:00:58.725Z,98500.03
2022-10-03T20:03:36.130Z,98505.13
2022-10-03T20:06:04.852Z,98505.69
2022-10-03T20:08:45.526Z,98506.44
2022-10-03T20:11:17.676Z,98507.06
2022-10-03T20:13:49.121Z,98496.06
2022-10-03T20:16:26.820Z,98503.78
2022-10-03T20:18:57.407Z,98501.84
2022-10-03T20:21:27.131Z,98506.22
2022-10-03T20:23:55.186Z,98512.47
2022-10-03T20:26:29.906Z,98518.44
2022-10-03T20:29:28.698Z,98513.22
2022-10-03T20:32:00.598Z,98511.66
2022-10-03T20:34:28.118Z,98504.34
2022-10-03T20:37:18.654Z,98502.56
2022-10-03T20:39:46.915Z,98510.06
2022-10-03T20:42:19.970Z,98503.97
2022-10-03T20:45:03.765Z,98506.66
2022-10-03T20:48:06.666Z,98521.75
2022-10-03T20:50:46.217Z,98510.16
2022-10-03T20:53:19.558Z,98510.88
2022-10-03T20:56:02.554Z,98506.69
2022-10-03T20:58:32.256Z,98506.34
2022-10-03T21:01:02.375Z,98505.69
2022-10-03T21:03:37.233Z,98507.41
2022-10-03T21:06:29.174Z,98504.28
2022-10-03T21:08:56.769Z,98504.91
2022-10-03T21:11:26.650Z,98503.16
2022-10-03T21:14:22.964Z,98507.87
2022-10-03T21:16:51.468Z,98510.59
2022-10-03T21:19:37.094Z,98517.03
2022-10-03T21:22:05.681Z,98517.94
2022-10-03T21:24:35.093Z,98521.87
2022-10-03T21:27:22.665Z,98519.84
2022-10-03T21:29:57.595Z,98519.31
2022-10-03T21:32:45.063Z,98518.47
2022-10-03T21:35:22.481Z,98525.56
2022-10-03T21:37:58.255Z,98530.78
2022-10-03T21:40:54.756Z,98536.34
2022-10-03T21:44:01.916Z,98535.16
2022-10-03T21:46:36.748Z,98532.31
2022-10-03T21:49:38.132Z,98531.97
2022-10-03T21:52:39.592Z,98530.53
2022-10-03T21:55:33.596Z,98526.06
2022-10-03T21:58:06.321Z,98525.13
2022-10-03T22:01:20.953Z,98516.09
2022-10-03T22:04:05.942Z,98524.53
2022-10-03T22:06:39.760Z,98517.66
2022-10-03T22:09:12.465Z,98518.00
2022-10-03T22:11:46.027Z,98519.47
2022-10-03T22:14:30.362Z,98517.59
2022-10-03T22:17:01.253Z,98512.16
2022-10-03T22:19:31.169Z,98514.03
2022-10-03T22:22:08.698Z,98510.16
2022-10-03T22:25:07.778Z,98519.38
2022-10-03T22:27:44.327Z,98509.78
2022-10-03T22:30:13.768Z,98522.87
2022-10-03T22:33:12.243Z,98523.13
2022-10-03T22:35:50.052Z,98509.94
2022-10-03T22:38:17.772Z,98507.66
2022-10-03T22:40:46.812Z,98501.94
2022-10-03T22:43:14.833Z,98497.81
2022-10-03T22:45:58.686Z,98501.31
2022-10-03T22:48:29.725Z,98501.59
2022-10-03T22:50:57.022Z,98503.69
2022-10-03T22:53:28.520Z,98507.22
2022-10-03T22:56:33.984Z,98507.03
2022-10-03T22:59:07.122Z,98514.13
2022-10-03T23:01:35.332Z,98509.75
2022-10-03T23:04:04.842Z,98511.03
2022-10-03T23:06:40.966Z,98514.41
2022-10-03T23:09:13.887Z,98510.22
2022-10-03T23:11:42.789Z,98510.03
2022-10-03T23:14:23.545Z,98516.56
2022-10-03T23:17:10.119Z,98511.69
2022-10-03T23:19:45.887Z,98504.31
2022-10-03T23:22:18.819Z,98506.41
2022-10-03T23:24:54.897Z,98499.31
2022-10-03T23:27:44.962Z,98503.09
2022-10-03T23:30:11.756Z,98500.97
2022-10-03T23:32:56.442Z,98495.19
2022-10-03T23:35:43.036Z,98493.34
2022-10-03T23:38:31.731Z,98494.41
2022-10-03T23:41:01.357Z,98486.22
2022-10-03T23:43:43.673Z,98492.06
2022-10-03T23:46:16.061Z,98498.47
2022-10-03T23:48:52.750Z,98510.56
2022-10-03T23:51:27.443Z,98505.06
2022-10-03T23:54:04.156Z,98507.13
2022-10-03T23:56:35.137Z,98513.50
2022-10-03T23:59:05.286Z,98513.28
